NSTU

Pago Pago International

Airport
ICAO code
NSTU
Summary
ICAO Region
APAC
ICAO Territory
Location

Tafuna, island of Tutuila,

Coordinates
14° 19' 53" S , 170° 42' 41" W
KCC
Airport BS
Bird Strike
Metar
NSTU 142250Z 12013KT 12SM SCT016 SCT040 32/27 A2986 RMK SLP112 T03160273

Description

Pago Pago International Airport, also referred to as Tafuna Airport (or Tafuna International Airport), Tafuna Airfield, Tafuna Airbase or Pago Pago International with airport designation PPG is a public airport located 11.3 km southwest of the central business district of Pago Pago, in the village and plains of Tafuna on the island of Tutuila in American Samoa, an unincorporated territory of the United States.

Climatology

Tropical Rainforest climate (Köppen climate classification Af) - almost no distinct seasons, average daily temperature around 27°C throughout the year. Extensive cloud cover and heavy rainfall prevent temperatures from rising much over 33°C. The diurnal temperature change is between 2°C and 5°C which is greater than the annual temperature range of 2°C. Rainfall is heavy and is usually convectional and in the afternoon.

Runways

Designator Length Width Surface Rops
8/26 1158 30 ASP Yes/Yes
5/23 3048 46 ASP Yes/Yes

Airport map

Aerial View

SKYbrary Partners:

Safety knowledge contributed by: